Kezdőlap
METAR-TAF:

METAR-TAF

Repülőterek :

Monticello Regional Airport

Monticello, Iowa, Amerikai Egyesült Államok

földrajzi szélesség: 42-14N, földrajzi hosszúság: 091-10W, magasság: 259 m

Jelenlegi meteorológiai megfigyelések

A jelentés 17 perccel ezelõtt készült, 12:55 UTC
Szélcsend
Hőmérséklet -2°C
Páratartalom 100%
Légköri nyomás 1026 hPa
Látótávolság: 16.1 km
Szakadozott felhőzet 9000 lábon
Szakadozott felhőzet 11000 lábon

METAR: KMXO 041255Z AUTO 00000KT 10SM BKN090 BKN110 M02/M02 A3030 RMK AO2

Idő: 07:12 (13:12 UTC)


TAF: hiányzik

Meteorológiai megfigyelések és előrejelzések több, mint 4000 repülőtéren (METAR és TAF jelentéseket).

A térképen piros és sárga pontok jelzik az elérhető meteorológiai állomásokat.

Mozgassa az egeret a pont fölött, hogy megjelenjen az állomás neve.

Azután kattintson az időjárási megfigyelések és előrejelzések megtekintéséhez.

A térkép megváltoztatása: kattintson a fekete keresztel jelölt zöld gombra ráközelítéshez, a vonallal jelölt zöld gombra távolításhoz, vagy a zöld nyilakra a szomszédos térképek eléréséhez.


METAR-TAF: